createdAt,value
2022-10-19T00:00:51.120Z,21
2022-10-19T00:30:15.729Z,20
2022-10-19T00:59:38.772Z,19
2022-10-19T01:29:04.515Z,19
2022-10-19T01:58:15.927Z,22
2022-10-19T02:27:40.170Z,22
2022-10-19T02:56:54.591Z,22
2022-10-19T03:26:12.277Z,23
2022-10-19T03:54:57.328Z,23
2022-10-19T04:24:14.073Z,22
2022-10-19T04:54:30.502Z,26
2022-10-19T05:23:25.814Z,32
2022-10-19T05:52:39.855Z,24
2022-10-19T06:21:58.959Z,27
2022-10-19T06:51:20.540Z,26
2022-10-19T07:20:33.794Z,26
2022-10-19T07:49:45.014Z,28
2022-10-19T08:19:01.923Z,28
2022-10-19T08:48:26.538Z,29
2022-10-19T09:17:49.490Z,29
2022-10-19T09:47:14.304Z,29
2022-10-19T10:16:27.425Z,28
2022-10-19T10:45:40.435Z,31
2022-10-19T11:15:06.839Z,32
2022-10-19T11:44:33.621Z,36
2022-10-19T12:14:07.945Z,29
2022-10-19T12:43:30.440Z,28
2022-10-19T13:12:55.845Z,27
2022-10-19T13:42:12.415Z,22
2022-10-19T14:11:31.780Z,22
2022-10-19T14:40:59.895Z,17
2022-10-19T15:10:20.836Z,13
2022-10-19T15:39:45.939Z,17
2022-10-19T16:08:39.432Z,15
2022-10-19T16:37:59.714Z,15
2022-10-19T17:07:24.073Z,15
2022-10-19T17:37:44.408Z,19
2022-10-19T18:06:21.765Z,22
2022-10-19T18:35:40.341Z,19
2022-10-19T19:05:02.731Z,19
2022-10-19T19:34:21.025Z,22
2022-10-19T20:03:37.631Z,22
2022-10-19T20:32:46.983Z,23
2022-10-19T21:02:04.594Z,26
2022-10-19T21:31:13.957Z,29
2022-10-19T22:00:34.737Z,26
2022-10-19T22:29:52.956Z,26
2022-10-19T22:59:09.863Z,32
2022-10-19T23:28:23.538Z,28
2022-10-19T23:57:37.486Z,33
